createdAt,value
2019-04-14T00:00:05.562Z,40.38
2019-04-14T00:02:57.733Z,41.40
2019-04-14T00:05:28.215Z,39.10
2019-04-14T00:07:58.470Z,40.60
2019-04-14T00:10:28.922Z,42.05
2019-04-14T00:12:58.480Z,42.10
2019-04-14T00:15:33.009Z,39.20
2019-04-14T00:17:59.127Z,39.48
2019-04-14T00:20:29.321Z,38.23
2019-04-14T00:22:59.773Z,39.65
2019-04-14T00:25:30.270Z,40.48
2019-04-14T00:28:00.768Z,39.73
2019-04-14T00:30:30.218Z,37.42
2019-04-14T00:33:01.958Z,39.30
2019-04-14T00:35:40.682Z,39.85
2019-04-14T00:38:32.330Z,38.28
2019-04-14T00:41:20.176Z,40.33
2019-04-14T00:44:05.611Z,39.98
2019-04-14T00:46:42.986Z,38.92
2019-04-14T00:49:13.605Z,37.40
2019-04-14T00:51:44.090Z,39.65
2019-04-14T00:54:13.692Z,38.05
2019-04-14T00:56:43.333Z,38.95
2019-04-14T00:59:13.632Z,35.43
2019-04-14T01:01:43.798Z,37.33
2019-04-14T01:04:14.338Z,37.98
2019-04-14T01:06:44.862Z,38.50
2019-04-14T01:09:15.219Z,38.08
2019-04-14T01:11:44.702Z,37.60
2019-04-14T01:14:14.753Z,37.08
2019-04-14T01:16:45.201Z,37.73
2019-04-14T01:19:15.509Z,38.50
2019-04-14T01:21:45.761Z,38.55
2019-04-14T01:24:16.359Z,38.23
2019-04-14T01:26:46.379Z,38.45
2019-04-14T01:29:16.599Z,41.90
2019-04-14T01:31:47.039Z,39.13
2019-04-14T01:34:17.291Z,41.50
2019-04-14T01:36:47.487Z,41.40
2019-04-14T01:39:17.635Z,38.55
2019-04-14T01:41:47.809Z,40.50
2019-04-14T01:44:17.787Z,42.05
2019-04-14T01:46:47.785Z,40.43
2019-04-14T01:49:17.937Z,40.45
2019-04-14T01:51:54.895Z,38.35
2019-04-14T01:54:47.352Z,38.98
2019-04-14T01:57:41.664Z,36.63
2019-04-14T02:00:27.002Z,39.05
2019-04-14T02:02:57.602Z,39.50
2019-04-14T02:05:27.780Z,39.67
2019-04-14T02:07:58.006Z,38.88
2019-04-14T02:10:28.049Z,39.78
2019-04-14T02:12:58.536Z,40.12
2019-04-14T02:15:28.675Z,42.20
2019-04-14T02:17:58.898Z,40.45
2019-04-14T02:20:29.554Z,38.23
2019-04-14T02:22:59.580Z,39.00
2019-04-14T02:25:29.566Z,40.10
2019-04-14T02:28:00.104Z,39.65
2019-04-14T02:30:36.255Z,39.08
2019-04-14T02:33:37.775Z,40.20
2019-04-14T02:38:41.439Z,40.20
2019-04-14T02:41:04.234Z,40.15
2019-04-14T02:48:53.340Z,39.75
2019-04-14T02:51:14.402Z,39.00
2019-04-14T02:56:46.731Z,39.60
2019-04-14T03:01:14.743Z,39.65
2019-04-14T03:03:41.334Z,40.50
2019-04-14T03:16:23.343Z,36.35
2019-04-14T03:19:20.553Z,36.77
2019-04-14T03:21:54.744Z,37.08
2019-04-14T03:24:47.627Z,36.17
2019-04-14T03:27:44.883Z,35.88
2019-04-14T03:30:34.162Z,34.83
2019-04-14T03:35:50.991Z,36.77
2019-04-14T03:40:27.458Z,37.33
2019-04-14T03:43:04.006Z,37.93
2019-04-14T03:45:27.616Z,37.05
2019-04-14T03:48:31.523Z,36.08
2019-04-14T03:50:23.087Z,35.20
2019-04-14T03:53:03.276Z,36.05
2019-04-14T03:55:17.893Z,41.08
2019-04-14T03:57:32.896Z,37.10
2019-04-14T04:00:03.205Z,36.15
2019-04-14T04:02:33.709Z,35.40
2019-04-14T04:05:04.131Z,40.45
2019-04-14T04:07:34.336Z,34.00
2019-04-14T04:10:16.393Z,38.85
2019-04-14T04:12:46.548Z,36.90
2019-04-14T04:15:17.029Z,38.42
2019-04-14T04:17:54.151Z,36.83
2019-04-14T04:20:48.221Z,36.13
2019-04-14T04:23:40.286Z,36.53
2019-04-14T04:26:19.061Z,38.17
2019-04-14T04:29:07.032Z,35.58
2019-04-14T04:32:05.698Z,35.40
2019-04-14T04:34:40.287Z,37.55
2019-04-14T04:37:37.600Z,37.98
2019-04-14T04:40:11.524Z,36.03
2019-04-14T04:42:41.625Z,36.63
2019-04-14T04:45:12.725Z,36.73
2019-04-14T04:47:42.652Z,37.67
2019-04-14T04:50:13.055Z,39.25
2019-04-14T04:52:42.945Z,39.00
2019-04-14T04:55:13.362Z,37.10
2019-04-14T04:57:43.817Z,39.05
2019-04-14T05:00:13.517Z,38.53
2019-04-14T05:02:43.888Z,37.20
2019-04-14T05:05:49.248Z,38.55
2019-04-14T05:08:19.556Z,36.90
2019-04-14T05:11:12.130Z,40.10
2019-04-14T05:13:42.963Z,39.18
2019-04-14T05:16:12.792Z,40.08
2019-04-14T05:19:31.846Z,39.98
2019-04-14T05:22:14.301Z,43.02
2019-04-14T05:24:43.970Z,39.55
2019-04-14T05:27:14.554Z,39.92
2019-04-14T05:29:45.052Z,39.65
2019-04-14T05:32:15.211Z,40.28
2019-04-14T05:34:45.450Z,42.35
2019-04-14T05:37:16.085Z,40.85
2019-04-14T05:39:46.143Z,39.20
2019-04-14T05:42:21.901Z,39.88
2019-04-14T05:44:49.339Z,41.02
2019-04-14T05:47:37.129Z,42.08
2019-04-14T05:50:09.533Z,42.15
2019-04-14T05:52:40.351Z,43.45
2019-04-14T05:55:28.516Z,44.45
2019-04-14T05:58:16.480Z,41.77
2019-04-14T06:00:47.593Z,40.83
2019-04-14T06:03:17.213Z,41.95
2019-04-14T06:05:46.816Z,41.77
2019-04-14T06:08:16.449Z,42.13
2019-04-14T06:10:46.014Z,41.37
2019-04-14T06:13:15.536Z,41.75
2019-04-14T06:15:44.977Z,41.77
2019-04-14T06:18:14.498Z,43.08
2019-04-14T06:20:44.102Z,42.38
2019-04-14T06:23:13.665Z,41.13
2019-04-14T06:25:43.197Z,42.35
2019-04-14T06:28:12.793Z,40.25
2019-04-14T06:30:59.858Z,37.78
2019-04-14T06:33:37.993Z,38.20
2019-04-14T06:36:26.869Z,39.10
2019-04-14T06:39:20.454Z,41.00
2019-04-14T06:41:50.186Z,42.85
2019-04-14T06:44:19.715Z,41.33
2019-04-14T06:46:49.456Z,41.30
2019-04-14T06:49:18.993Z,38.58
2019-04-14T06:51:48.622Z,39.95
2019-04-14T06:54:18.085Z,39.53
2019-04-14T06:56:47.519Z,38.50
2019-04-14T06:59:17.092Z,37.95
2019-04-14T07:01:46.608Z,40.10
2019-04-14T07:04:16.172Z,39.50
2019-04-14T07:06:45.825Z,41.45
2019-04-14T07:09:15.350Z,39.00
2019-04-14T07:11:44.892Z,39.15
2019-04-14T07:14:14.440Z,33.73
2019-04-14T07:16:43.924Z,37.73
2019-04-14T07:19:13.481Z,38.48
2019-04-14T07:21:43.049Z,37.35
2019-04-14T07:24:12.564Z,38.92
2019-04-14T07:26:42.107Z,37.63
2019-04-14T07:29:14.583Z,35.58
2019-04-14T07:31:53.213Z,36.90
2019-04-14T07:34:48.143Z,38.08
2019-04-14T07:37:55.354Z,36.00
2019-04-14T07:40:40.326Z,38.63
2019-04-14T07:43:22.674Z,36.90
2019-04-14T07:46:16.900Z,37.15
2019-04-14T07:48:58.382Z,37.80
2019-04-14T07:51:43.998Z,38.00
2019-04-14T07:54:30.447Z,36.23
2019-04-14T07:57:13.217Z,36.58
2019-04-14T07:59:51.124Z,36.40
2019-04-14T08:03:00.248Z,36.90
2019-04-14T08:05:32.864Z,37.03
2019-04-14T08:08:02.505Z,38.20
2019-04-14T08:10:32.069Z,37.23
2019-04-14T08:13:01.627Z,38.17
2019-04-14T08:15:31.225Z,39.35
2019-04-14T08:18:00.743Z,38.00
2019-04-14T08:20:30.238Z,38.08
2019-04-14T08:22:59.768Z,36.88
2019-04-14T08:25:29.366Z,38.33
2019-04-14T08:27:58.871Z,37.00
2019-04-14T08:30:28.384Z,38.73
2019-04-14T08:32:57.917Z,39.85
2019-04-14T08:35:27.581Z,39.95
2019-04-14T08:37:57.155Z,38.85
2019-04-14T08:40:26.704Z,40.08
2019-04-14T08:43:13.283Z,38.38
2019-04-14T08:46:16.820Z,36.17
2019-04-14T08:48:48.885Z,38.40
2019-04-14T08:51:40.146Z,39.95
2019-04-14T08:54:22.573Z,35.65
2019-04-14T08:57:17.041Z,38.38
2019-04-14T09:00:06.661Z,38.30
2019-04-14T09:02:58.058Z,35.17
2019-04-14T09:05:43.396Z,37.17
2019-04-14T09:08:38.007Z,38.67
2019-04-14T09:11:08.170Z,36.20
2019-04-14T09:13:37.817Z,38.25
2019-04-14T09:16:07.385Z,37.20
2019-04-14T09:18:39.023Z,38.10
2019-04-14T09:21:08.721Z,36.23
2019-04-14T09:23:38.402Z,37.05
2019-04-14T09:26:08.151Z,35.75
2019-04-14T09:28:37.817Z,36.03
2019-04-14T09:31:07.425Z,37.48
2019-04-14T09:33:37.009Z,35.98
2019-04-14T09:36:06.581Z,37.05
2019-04-14T09:38:36.221Z,35.28
2019-04-14T09:41:05.793Z,37.80
2019-04-14T09:43:35.325Z,37.48
2019-04-14T09:46:04.810Z,38.50
2019-04-14T09:48:34.429Z,37.88
2019-04-14T09:51:05.028Z,37.85
2019-04-14T09:53:35.016Z,36.68
2019-04-14T09:56:04.613Z,38.15
2019-04-14T09:58:34.092Z,37.80
2019-04-14T10:01:03.659Z,39.08
2019-04-14T10:03:33.317Z,37.78
2019-04-14T10:06:02.875Z,37.15
2019-04-14T10:08:32.438Z,35.68
2019-04-14T10:11:04.928Z,36.75
2019-04-14T10:13:34.357Z,35.05
2019-04-14T10:16:03.873Z,38.25
2019-04-14T10:18:33.488Z,38.20
2019-04-14T10:21:02.960Z,36.70
2019-04-14T10:23:32.557Z,36.20
2019-04-14T10:26:03.056Z,36.73
2019-04-14T10:28:32.532Z,37.10
2019-04-14T10:31:01.947Z,36.70
2019-04-14T10:33:31.676Z,35.63
2019-04-14T10:36:03.115Z,35.77
2019-04-14T10:38:32.974Z,36.47
2019-04-14T10:41:02.359Z,35.50
2019-04-14T10:43:31.886Z,35.77
2019-04-14T10:46:01.317Z,36.27
2019-04-14T10:48:32.972Z,34.57
2019-04-14T10:51:02.378Z,36.57
2019-04-14T10:53:31.939Z,33.37
2019-04-14T10:56:01.781Z,34.60
2019-04-14T10:58:31.226Z,35.87
2019-04-14T11:01:00.816Z,34.90
2019-04-14T11:03:30.152Z,36.33
2019-04-14T11:06:24.987Z,33.80
2019-04-14T11:08:54.768Z,33.63
2019-04-14T11:11:42.013Z,35.90
2019-04-14T11:14:11.488Z,35.00
2019-04-14T11:16:43.060Z,33.63
2019-04-14T11:19:13.571Z,34.57
2019-04-14T11:21:43.192Z,33.90
2019-04-14T11:24:12.585Z,34.70
2019-04-14T11:26:42.101Z,35.90
2019-04-14T11:29:11.755Z,34.40
2019-04-14T11:32:37.234Z,33.20
2019-04-14T11:35:12.936Z,35.20
2019-04-14T11:37:59.605Z,35.87
2019-04-14T11:40:34.673Z,34.50
2019-04-14T11:43:03.937Z,33.57
2019-04-14T11:45:33.336Z,32.73
2019-04-14T11:48:02.736Z,34.30
2019-04-14T11:50:32.191Z,33.93
2019-04-14T11:53:01.725Z,34.37
2019-04-14T11:55:31.230Z,34.07
2019-04-14T11:58:00.846Z,33.67
2019-04-14T12:00:47.901Z,34.83
2019-04-14T12:03:35.331Z,34.47
2019-04-14T12:06:15.071Z,35.50
2019-04-14T12:09:09.796Z,33.37
2019-04-14T12:11:39.221Z,33.47
2019-04-14T12:14:08.600Z,33.10
2019-04-14T12:16:38.122Z,32.97
2019-04-14T12:19:07.672Z,33.00
2019-04-14T12:21:37.165Z,33.80
2019-04-14T12:24:06.733Z,33.60
2019-04-14T12:26:36.301Z,34.30
2019-04-14T12:29:06.402Z,32.97
2019-04-14T12:31:35.890Z,31.80
2019-04-14T12:34:05.375Z,31.77
2019-04-14T12:36:34.768Z,32.40
2019-04-14T12:39:05.912Z,31.90
2019-04-14T12:41:48.691Z,31.63
2019-04-14T12:44:49.340Z,31.83
2019-04-14T12:47:46.585Z,32.57
2019-04-14T12:50:25.774Z,33.37
2019-04-14T12:52:56.363Z,31.43
2019-04-14T12:55:26.033Z,31.97
2019-04-14T12:57:58.217Z,30.73
2019-04-14T13:00:33.825Z,30.37
2019-04-14T13:03:03.259Z,32.17
2019-04-14T13:05:32.671Z,30.87
2019-04-14T13:08:02.162Z,31.70
2019-04-14T13:10:31.580Z,31.70
2019-04-14T13:13:01.042Z,33.93
2019-04-14T13:15:30.420Z,33.57
2019-04-14T13:21:46.557Z,32.47
2019-04-14T13:24:16.248Z,32.97
2019-04-14T13:26:45.726Z,32.10
2019-04-14T13:29:17.314Z,31.30
2019-04-14T13:31:47.143Z,32.37
2019-04-14T13:34:16.623Z,33.17
2019-04-14T13:36:46.002Z,33.47
2019-04-14T13:39:15.441Z,31.60
2019-04-14T13:41:44.889Z,32.00
2019-04-14T13:44:14.508Z,34.43
2019-04-14T13:46:43.968Z,35.00
2019-04-14T13:49:13.534Z,35.10
2019-04-14T13:51:42.994Z,36.30
2019-04-14T13:54:12.716Z,35.57
2019-04-14T13:56:42.136Z,34.87
2019-04-14T13:59:11.741Z,36.20
2019-04-14T14:01:41.209Z,34.57
2019-04-14T14:04:10.617Z,35.80
2019-04-14T14:06:40.122Z,34.73
2019-04-14T14:09:12.324Z,33.30
2019-04-14T14:12:06.573Z,33.13
2019-04-14T14:15:03.784Z,34.93
2019-04-14T14:17:44.844Z,34.53
2019-04-14T14:20:33.231Z,33.40
2019-04-14T14:23:24.575Z,33.83
2019-04-14T14:25:59.053Z,34.03
2019-04-14T14:28:28.457Z,32.27
2019-04-14T14:30:57.914Z,31.43
2019-04-14T14:33:45.385Z,31.83
2019-04-14T14:36:32.905Z,31.10
2019-04-14T14:39:07.782Z,30.33
2019-04-14T14:41:37.241Z,31.47
2019-04-14T14:44:06.643Z,29.93
2019-04-14T14:46:57.820Z,27.83
2019-04-14T14:49:48.812Z,28.03
2019-04-14T14:52:37.458Z,25.43
2019-04-14T14:55:07.209Z,25.83
2019-04-14T14:57:36.734Z,23.30
2019-04-14T15:00:12.837Z,23.47
2019-04-14T15:02:42.510Z,21.77
2019-04-14T15:05:12.248Z,22.50
2019-04-14T15:07:41.867Z,23.70
2019-04-14T15:10:11.812Z,22.67
2019-04-14T15:12:44.076Z,22.87
2019-04-14T15:15:13.799Z,21.77
2019-04-14T15:17:43.414Z,21.37
2019-04-14T15:20:13.092Z,18.83
2019-04-14T15:22:42.697Z,20.00
2019-04-14T15:25:12.500Z,19.73
2019-04-14T15:27:42.213Z,19.73
2019-04-14T15:30:16.607Z,19.13
2019-04-14T15:32:46.173Z,18.60
2019-04-14T15:35:15.950Z,19.10
2019-04-14T15:37:45.548Z,17.90
2019-04-14T15:40:33.018Z,20.27
2019-04-14T15:43:03.873Z,18.97
2019-04-14T15:45:33.522Z,20.40
2019-04-14T15:48:03.283Z,20.37
2019-04-14T15:50:32.906Z,19.70
2019-04-14T15:53:02.524Z,19.80
2019-04-14T15:55:32.267Z,21.57
2019-04-14T15:58:26.518Z,21.80
2019-04-14T16:01:13.884Z,20.77
2019-04-14T16:04:12.511Z,21.20
2019-04-14T16:07:00.875Z,21.00
2019-04-14T16:09:41.473Z,20.47
2019-04-14T16:12:38.801Z,19.97
2019-04-14T16:15:18.103Z,20.10
2019-04-14T16:18:15.392Z,20.57
2019-04-14T16:20:45.171Z,20.03
2019-04-14T16:23:14.744Z,19.97
2019-04-14T16:26:06.175Z,19.60
2019-04-14T16:28:54.596Z,19.73
2019-04-14T16:31:42.955Z,20.00
2019-04-14T16:34:15.803Z,19.70
2019-04-14T16:36:47.076Z,20.13
2019-04-14T16:39:16.751Z,20.23
2019-04-14T16:41:46.307Z,18.87
2019-04-14T16:44:15.904Z,18.27
2019-04-14T16:46:45.389Z,20.60
2019-04-14T16:49:14.894Z,18.87
2019-04-14T16:51:59.744Z,18.48
2019-04-14T16:54:54.031Z,18.87
2019-04-14T16:57:41.290Z,18.40
2019-04-14T17:00:12.026Z,23.75
2019-04-14T17:02:41.467Z,19.65
2019-04-14T17:05:11.036Z,19.30
2019-04-14T17:07:43.351Z,17.85
2019-04-14T17:10:12.867Z,21.05
2019-04-14T17:12:42.402Z,19.30
2019-04-14T17:15:36.899Z,21.33
2019-04-14T17:18:28.298Z,19.98
2019-04-14T17:21:16.657Z,20.43
2019-04-14T17:24:15.998Z,15.48
2019-04-14T17:26:55.174Z,19.15
2019-04-14T17:29:45.402Z,17.52
2019-04-14T17:32:25.602Z,18.67
2019-04-14T17:35:12.680Z,15.50
2019-04-14T17:37:54.533Z,16.80
2019-04-14T17:40:52.529Z,16.23
2019-04-14T17:43:40.822Z,15.48
2019-04-14T17:46:28.068Z,14.83
2019-04-14T17:49:15.880Z,25.62
2019-04-14T17:51:51.528Z,28.73
2019-04-14T17:54:34.248Z,18.07
2019-04-14T17:57:25.880Z,28.77
2019-04-14T18:00:07.049Z,16.05
2019-04-14T18:02:52.268Z,17.02
2019-04-14T18:05:31.087Z,14.90
2019-04-14T18:08:18.652Z,26.85
2019-04-14T18:10:56.147Z,16.55
2019-04-14T18:13:42.507Z,17.48
2019-04-14T18:16:38.569Z,17.55
2019-04-14T18:19:12.106Z,16.15
2019-04-14T18:21:44.153Z,19.25
2019-04-14T18:24:12.827Z,26.35
2019-04-14T18:26:42.244Z,22.32
2019-04-14T18:29:29.358Z,31.17
2019-04-14T18:32:30.051Z,19.65
2019-04-14T18:35:17.078Z,24.63
2019-04-14T18:38:17.880Z,17.70
2019-04-14T18:41:08.460Z,18.23
2019-04-14T18:43:56.866Z,17.42
2019-04-14T18:47:04.001Z,18.00
2019-04-14T18:49:50.953Z,18.05
2019-04-14T18:52:45.332Z,18.52
2019-04-14T18:55:46.138Z,18.50
2019-04-14T18:58:40.252Z,20.23
2019-04-14T19:01:38.149Z,19.75
2019-04-14T19:04:11.227Z,17.23
2019-04-14T19:06:40.932Z,18.00
2019-04-14T19:09:10.745Z,17.35
2019-04-14T19:12:05.725Z,17.40
2019-04-14T19:14:37.789Z,17.52
2019-04-14T19:17:11.360Z,18.50
2019-04-14T19:19:43.473Z,18.17
2019-04-14T19:22:13.083Z,18.15
2019-04-14T19:24:42.605Z,18.45
2019-04-14T19:27:12.062Z,18.20
2019-04-14T19:29:41.581Z,19.67
2019-04-14T19:32:11.096Z,18.20
2019-04-14T19:34:40.615Z,19.02
2019-04-14T19:37:10.056Z,18.50
2019-04-14T19:39:39.621Z,18.95
2019-04-14T19:42:09.063Z,21.45
2019-04-14T19:44:38.876Z,20.27
2019-04-14T19:47:08.361Z,20.23
2019-04-14T19:49:37.797Z,18.32
2019-04-14T19:52:07.395Z,18.92
2019-04-14T19:54:36.920Z,21.40
2019-04-14T19:57:06.484Z,20.05
2019-04-14T19:59:36.013Z,20.70
2019-04-14T20:02:05.612Z,22.30
2019-04-14T20:04:35.119Z,22.95
2019-04-14T20:10:22.412Z,21.57
2019-04-14T20:12:51.848Z,25.48
2019-04-14T20:15:27.545Z,25.20
2019-04-14T20:18:02.860Z,27.35
2019-04-14T20:21:09.475Z,26.20
2019-04-14T20:23:42.944Z,22.90
2019-04-14T20:26:30.229Z,23.60
2019-04-14T20:29:24.808Z,21.37
2019-04-14T20:32:03.489Z,21.40
2019-04-14T20:34:32.861Z,24.35
2019-04-14T20:37:02.246Z,25.12
2019-04-14T20:39:32.938Z,23.22
2019-04-14T20:42:02.367Z,23.30
2019-04-14T20:44:31.767Z,23.67
2019-04-14T20:47:01.374Z,22.95
2019-04-14T20:49:30.817Z,23.90
2019-04-14T20:52:00.518Z,26.55
2019-04-14T20:54:30.017Z,23.95
2019-04-14T20:56:59.513Z,24.67
2019-04-14T20:59:28.999Z,25.57
2019-04-14T21:02:20.149Z,27.15
2019-04-14T21:05:11.581Z,24.80
2019-04-14T21:07:59.988Z,22.02
2019-04-14T21:10:42.866Z,22.25
2019-04-14T21:13:34.258Z,23.38
2019-04-14T21:16:12.736Z,23.38
2019-04-14T21:18:44.743Z,25.23
2019-04-14T21:21:27.499Z,25.88
2019-04-14T21:24:28.162Z,25.95
2019-04-14T21:27:08.236Z,26.05
2019-04-14T21:29:56.569Z,26.00
2019-04-14T21:32:32.961Z,27.52
2019-04-14T21:35:24.509Z,27.80
2019-04-14T21:38:18.652Z,26.23
2019-04-14T21:40:54.217Z,26.40
2019-04-14T21:43:23.579Z,25.85
2019-04-14T21:45:52.994Z,25.50
2019-04-14T21:48:22.370Z,25.50
2019-04-14T21:50:51.777Z,25.80
2019-04-14T21:53:21.272Z,26.42
2019-04-14T21:55:50.925Z,24.70
2019-04-14T21:58:45.200Z,26.95
2019-04-14T22:01:50.876Z,25.12
2019-04-14T22:04:38.735Z,25.72
2019-04-14T22:07:25.961Z,25.57
2019-04-14T22:09:59.118Z,25.68
2019-04-14T22:12:29.577Z,24.65
2019-04-14T22:14:58.972Z,26.87
2019-04-14T22:17:28.368Z,27.45
2019-04-14T22:19:57.761Z,28.12
2019-04-14T22:22:27.125Z,28.20
2019-04-14T22:24:56.540Z,26.20
2019-04-14T22:27:26.025Z,26.57
2019-04-14T22:29:55.518Z,25.37
2019-04-14T22:32:24.998Z,25.77
2019-04-14T22:34:54.467Z,27.40
2019-04-14T22:37:24.206Z,27.55
2019-04-14T22:39:53.865Z,25.82
2019-04-14T22:42:23.285Z,27.20
2019-04-14T22:44:52.762Z,27.93
2019-04-14T22:47:22.381Z,27.27
2019-04-14T22:49:51.864Z,26.95
2019-04-14T22:52:21.407Z,26.45
2019-04-14T22:54:51.023Z,27.82
2019-04-14T22:57:20.533Z,27.82
2019-04-14T22:59:50.095Z,27.42
2019-04-14T23:02:38.088Z,27.77
2019-04-14T23:05:33.097Z,27.98
2019-04-14T23:08:09.263Z,28.73
2019-04-14T23:11:06.870Z,29.67
2019-04-14T23:13:48.285Z,28.73
2019-04-14T23:16:37.250Z,29.02
2019-04-14T23:19:11.151Z,26.20
2019-04-14T23:21:45.061Z,26.93
2019-04-14T23:24:23.248Z,25.60
2019-04-14T23:26:53.320Z,26.40
2019-04-14T23:29:23.066Z,27.48
2019-04-14T23:31:52.472Z,27.50
2019-04-14T23:34:21.793Z,27.75
2019-04-14T23:36:51.180Z,27.35
2019-04-14T23:39:20.537Z,28.20
2019-04-14T23:41:49.915Z,27.32
2019-04-14T23:44:19.413Z,27.52
2019-04-14T23:46:48.911Z,29.02
2019-04-14T23:49:18.679Z,28.32
2019-04-14T23:51:48.057Z,30.43
2019-04-14T23:54:17.526Z,30.97
2019-04-14T23:56:47.193Z,29.70
2019-04-14T23:59:16.648Z,29.57
